Airfield :
LOGIN :

Register | Disclaimer

   EN    FR    IT 

 










Legend :    VFR   Marginal VFR   IFR   Intensive IFR   Very Intensive IFR
Visi :
Ceiling :
>= 8 km
>= 3000ft
5 to 8 km
1000 to 3000 ft
1500m to 5 km
500 to 1000 ft
800 to 1500m
200 to 500 ft
< 800m
< 200 ft
Symbols :   Thunderstorms  Fog  Heavy snow  Heavy precipitations  Wind > 20 kt
SIGMETs :     Misc.  Thunderstorms  Icing  Turbulence  Mountain Waves  Volcanic Ashes






- Airport Elevation : 616 ft
- IATA code : PUF


LFBP - Pau

CURRENT METAR :
  • 131930Z AUTO 11006KT CAVOK 20/15 Q1011 NOSIG

EXPIRED METARs :
  • 131900Z AUTO 08004KT 020V110 CAVOK 20/14 Q1011 NOSIG
  • 131830Z AUTO 09005KT CAVOK 20/14 Q1011 BECMG 15010KT
  • 131800Z AUTO VRB03KT 9999 FEW100 21/14 Q1011 NOSIG
  • 131730Z AUTO 05003KT 9999 FEW100 23/14 Q1011 BECMG 15010KT
  • 131700Z AUTO VRB03KT CAVOK 26/13 Q1011 NOSIG

TAF TAF LFBP
Valid from the 13 at 18:00 until the 14 at 18:00 UTC


131700Z 1318/1418 15010KT CAVOK
TEMPO 1412/1418 18015G30KT 3000 SHRA BKN070TCU
PROB40
TEMPO 1412/1418 TSRA BKN030CB



MET'MAP, your aeronautical weather chart ! - Copyright ORBIFLY December 2007 - Disclaimer

ORBIFLY MET'MAP TEAM :

Programming & Development : Alexandra Zaïnal
Concept & Development : Baudouin d'Aumeries
Co-Development & Prog : Marc-Olivier Méhu
Technical & hardware support : Manuel Goepfert

Contact : metmap@orbifly.com




SOURCES & CREDITS :

   NOAA